createdAt,value
2023-03-30T00:01:06.218Z,2.40
2023-03-30T00:03:34.831Z,3.00
2023-03-30T00:06:05.501Z,1.97
2023-03-30T00:08:35.248Z,3.60
2023-03-30T00:11:05.639Z,2.57
2023-03-30T00:13:34.704Z,1.97
2023-03-30T00:16:03.150Z,2.03
2023-03-30T00:18:31.434Z,2.10
2023-03-30T00:20:59.768Z,2.60
2023-03-30T00:23:28.128Z,2.30
2023-03-30T00:25:58.012Z,3.23
2023-03-30T00:28:26.344Z,2.50
2023-03-30T00:30:55.116Z,1.93
2023-03-30T00:33:33.616Z,2.43
2023-03-30T00:36:10.803Z,2.00
2023-03-30T00:38:39.074Z,2.43
2023-03-30T00:41:09.344Z,2.60
2023-03-30T00:43:37.810Z,2.20
2023-03-30T00:46:06.091Z,2.67
2023-03-30T00:48:36.770Z,1.90
2023-03-30T00:51:07.292Z,3.10
2023-03-30T00:53:37.042Z,2.97
2023-03-30T00:56:07.478Z,2.60
2023-03-30T00:58:38.656Z,2.90
2023-03-30T01:01:09.122Z,2.63
2023-03-30T01:03:39.101Z,2.50
2023-03-30T01:06:08.468Z,2.70
2023-03-30T01:08:41.001Z,2.53
2023-03-30T01:11:09.541Z,3.00
2023-03-30T01:13:40.852Z,2.40
2023-03-30T01:16:15.285Z,2.97
2023-03-30T01:18:50.442Z,2.53
2023-03-30T01:21:37.758Z,3.07
2023-03-30T01:24:22.567Z,3.10
2023-03-30T01:26:54.113Z,2.97
2023-03-30T01:29:30.844Z,3.07
2023-03-30T01:32:10.451Z,2.70
2023-03-30T01:34:51.785Z,2.53
2023-03-30T01:37:32.889Z,2.33
2023-03-30T01:40:05.827Z,2.57
2023-03-30T01:42:37.293Z,2.70
2023-03-30T01:45:11.355Z,2.57
2023-03-30T01:47:40.898Z,2.90
2023-03-30T01:50:12.410Z,2.60
2023-03-30T01:52:42.587Z,1.90
2023-03-30T01:55:15.671Z,2.50
2023-03-30T01:57:47.290Z,2.90
2023-03-30T02:00:17.956Z,2.40
2023-03-30T02:02:49.772Z,2.53
2023-03-30T02:05:22.375Z,2.73
2023-03-30T02:07:53.095Z,2.47
2023-03-30T02:10:24.950Z,2.93
2023-03-30T02:12:53.849Z,2.50
2023-03-30T02:15:22.236Z,2.80
2023-03-30T02:17:50.481Z,3.50
2023-03-30T02:20:19.004Z,3.37
2023-03-30T02:22:47.762Z,2.37
2023-03-30T02:25:16.090Z,2.30
2023-03-30T02:27:45.820Z,2.40
2023-03-30T02:30:24.735Z,3.20
2023-03-30T02:32:56.744Z,2.40
2023-03-30T02:35:41.303Z,3.00
2023-03-30T02:38:19.380Z,2.57
2023-03-30T02:40:51.357Z,3.40
2023-03-30T02:43:28.363Z,2.73
2023-03-30T02:46:02.934Z,2.37
2023-03-30T02:48:36.125Z,2.50
2023-03-30T02:51:11.933Z,2.27
2023-03-30T02:53:45.373Z,3.00
2023-03-30T02:56:16.924Z,2.43
2023-03-30T02:58:49.476Z,2.60
2023-03-30T03:01:19.824Z,2.60
2023-03-30T03:03:49.241Z,3.77
2023-03-30T03:06:17.909Z,2.80
2023-03-30T03:08:48.210Z,2.20
2023-03-30T03:11:17.076Z,2.70
2023-03-30T03:13:46.718Z,2.97
2023-03-30T03:16:15.599Z,2.33
2023-03-30T03:18:44.678Z,2.53
2023-03-30T03:21:14.191Z,2.70
2023-03-30T03:23:42.852Z,2.60
2023-03-30T03:26:11.563Z,2.37
2023-03-30T03:28:39.765Z,2.60
2023-03-30T03:31:09.781Z,3.00
2023-03-30T03:33:38.028Z,2.77
2023-03-30T03:36:06.573Z,2.83
2023-03-30T03:38:34.952Z,2.40
2023-03-30T03:41:03.445Z,2.30
2023-03-30T03:43:32.243Z,2.97
2023-03-30T03:46:00.614Z,3.37
2023-03-30T03:48:30.348Z,2.63
2023-03-30T03:50:59.622Z,3.33
2023-03-30T03:53:28.786Z,2.20
2023-03-30T03:55:57.002Z,2.90
2023-03-30T03:58:25.861Z,2.90
2023-03-30T04:00:58.892Z,2.40
2023-03-30T04:03:27.220Z,2.00
2023-03-30T04:05:59.936Z,2.80
2023-03-30T04:08:28.541Z,2.97
2023-03-30T04:10:56.923Z,2.50
2023-03-30T04:13:25.200Z,3.20
2023-03-30T04:15:53.591Z,3.50
2023-03-30T04:18:22.198Z,2.90
2023-03-30T04:20:50.695Z,3.37
2023-03-30T04:23:22.052Z,3.33
2023-03-30T04:25:51.802Z,3.60
2023-03-30T04:28:21.845Z,3.03
2023-03-30T04:30:50.674Z,3.00
2023-03-30T04:33:19.300Z,3.17
2023-03-30T04:35:47.841Z,2.50
2023-03-30T04:38:22.574Z,2.80
2023-03-30T04:40:53.023Z,2.77
2023-03-30T04:43:21.707Z,2.87
2023-03-30T04:45:53.627Z,2.97
2023-03-30T04:48:22.346Z,3.17
2023-03-30T04:50:51.471Z,2.90
2023-03-30T04:53:22.040Z,2.30
2023-03-30T04:55:52.754Z,2.63
2023-03-30T04:58:20.990Z,3.93
2023-03-30T05:00:49.286Z,2.70
2023-03-30T05:03:18.978Z,3.00
2023-03-30T05:05:48.343Z,5.83
2023-03-30T05:08:16.666Z,2.70
2023-03-30T05:10:44.938Z,2.60
2023-03-30T05:13:23.641Z,2.23
2023-03-30T05:15:54.815Z,2.70
2023-03-30T05:18:23.023Z,2.53
2023-03-30T05:20:53.313Z,3.27
2023-03-30T05:23:24.407Z,2.90
2023-03-30T05:25:52.785Z,3.00
2023-03-30T05:28:21.014Z,3.30
2023-03-30T05:30:56.699Z,3.37
2023-03-30T05:33:25.042Z,2.67
2023-03-30T05:35:53.609Z,2.63
2023-03-30T05:38:21.825Z,3.37
2023-03-30T05:40:53.717Z,2.83
2023-03-30T05:43:22.029Z,2.57
2023-03-30T05:45:51.690Z,2.73
2023-03-30T05:48:19.960Z,2.70
2023-03-30T05:50:49.055Z,3.10
2023-03-30T05:53:17.311Z,2.87
2023-03-30T05:55:46.806Z,2.27
2023-03-30T05:58:16.680Z,2.67
2023-03-30T06:00:48.194Z,3.20
2023-03-30T06:03:17.841Z,3.40
2023-03-30T06:05:46.620Z,3.40
2023-03-30T06:08:14.843Z,2.97
2023-03-30T06:10:43.083Z,3.30
2023-03-30T06:13:11.318Z,3.27
2023-03-30T06:15:39.527Z,3.20
2023-03-30T06:18:08.595Z,2.60
2023-03-30T06:20:38.477Z,3.50
2023-03-30T06:23:06.738Z,3.60
2023-03-30T06:25:35.657Z,3.20
2023-03-30T06:28:04.195Z,2.57
2023-03-30T06:30:32.696Z,2.63
2023-03-30T06:33:01.504Z,3.20
2023-03-30T06:35:29.916Z,3.33
2023-03-30T06:37:59.507Z,2.37
2023-03-30T06:40:27.725Z,3.17
2023-03-30T06:42:56.949Z,3.63
2023-03-30T06:45:25.163Z,3.23
2023-03-30T06:47:53.658Z,2.67
2023-03-30T06:50:21.963Z,3.67
2023-03-30T06:52:50.182Z,2.77
2023-03-30T06:55:19.885Z,2.70
2023-03-30T06:57:48.058Z,2.80
2023-03-30T07:00:16.660Z,2.13
2023-03-30T07:02:45.117Z,2.40
2023-03-30T07:05:15.756Z,2.93
2023-03-30T07:07:43.974Z,3.07
2023-03-30T07:10:12.619Z,3.00
2023-03-30T07:12:46.000Z,2.50
2023-03-30T07:15:14.430Z,2.77
2023-03-30T07:17:43.238Z,2.53
2023-03-30T07:20:14.875Z,2.20
2023-03-30T07:22:43.220Z,2.93
2023-03-30T07:25:13.681Z,2.33
2023-03-30T07:27:43.345Z,2.50
2023-03-30T07:30:21.691Z,1.70
2023-03-30T07:32:51.985Z,2.80
2023-03-30T07:35:20.297Z,2.77
2023-03-30T07:37:50.612Z,3.83
2023-03-30T07:40:19.793Z,2.30
2023-03-30T07:42:50.603Z,2.50
2023-03-30T07:45:18.972Z,2.57
2023-03-30T07:47:47.351Z,2.30
2023-03-30T07:50:15.624Z,2.17
2023-03-30T07:52:43.961Z,2.10
2023-03-30T07:55:12.320Z,2.60
2023-03-30T07:57:40.821Z,2.47
2023-03-30T08:00:14.048Z,2.90
2023-03-30T08:02:42.862Z,2.20
2023-03-30T08:05:11.463Z,3.80
2023-03-30T08:07:40.828Z,2.77
2023-03-30T08:10:09.867Z,2.33
2023-03-30T08:12:38.186Z,3.33
2023-03-30T08:15:07.309Z,2.50
2023-03-30T08:17:37.180Z,1.97
2023-03-30T08:20:10.781Z,2.33
2023-03-30T08:22:39.333Z,2.43
2023-03-30T08:25:07.787Z,1.93
2023-03-30T08:27:36.264Z,2.20
2023-03-30T08:30:04.537Z,1.93
2023-03-30T08:32:32.818Z,2.73
2023-03-30T08:35:02.610Z,2.70
2023-03-30T08:37:31.263Z,2.17
2023-03-30T08:39:59.468Z,2.00
2023-03-30T08:42:40.810Z,2.43
2023-03-30T08:45:10.607Z,1.90
2023-03-30T08:47:41.749Z,2.60
2023-03-30T08:50:15.656Z,2.90
2023-03-30T08:52:44.497Z,2.17
2023-03-30T08:55:21.243Z,2.30
2023-03-30T08:57:53.007Z,2.03
2023-03-30T09:00:27.655Z,2.07
2023-03-30T09:03:01.232Z,2.00
2023-03-30T09:05:32.236Z,2.33
2023-03-30T09:08:05.015Z,1.53
2023-03-30T09:10:36.739Z,1.60
2023-03-30T09:13:06.759Z,2.13
2023-03-30T09:15:37.059Z,1.10
2023-03-30T09:18:08.092Z,1.87
2023-03-30T09:20:38.930Z,1.47
2023-03-30T09:23:08.057Z,1.00
2023-03-30T09:25:38.545Z,1.37
2023-03-30T09:28:10.719Z,1.00
2023-03-30T09:30:40.948Z,1.13
2023-03-30T09:33:17.753Z,1.00
2023-03-30T09:35:56.374Z,0.87
2023-03-30T09:38:24.628Z,1.10
2023-03-30T09:41:01.434Z,1.00
2023-03-30T09:43:34.594Z,0.90
2023-03-30T09:46:04.575Z,1.20
2023-03-30T09:48:39.392Z,0.90
2023-03-30T09:51:17.864Z,1.57
2023-03-30T09:53:47.369Z,1.73
2023-03-30T09:56:20.039Z,1.70
2023-03-30T09:58:48.319Z,1.30
2023-03-30T10:01:19.936Z,1.07
2023-03-30T10:04:07.061Z,0.90
2023-03-30T10:06:38.145Z,2.07
2023-03-30T10:09:08.999Z,0.80
2023-03-30T10:11:38.512Z,0.70
2023-03-30T10:14:20.201Z,0.87
2023-03-30T10:16:48.481Z,0.70
2023-03-30T10:19:18.512Z,0.70
2023-03-30T10:21:48.239Z,0.73
2023-03-30T10:24:23.096Z,0.80
2023-03-30T10:26:53.053Z,0.90
2023-03-30T10:29:23.661Z,1.50
2023-03-30T10:32:02.146Z,1.47
2023-03-30T10:34:35.866Z,3.03
2023-03-30T10:37:07.889Z,1.53
2023-03-30T10:39:36.724Z,1.17
2023-03-30T10:42:05.811Z,1.53
2023-03-30T10:44:34.779Z,2.33
2023-03-30T10:47:10.946Z,1.63
2023-03-30T10:49:45.491Z,1.10
2023-03-30T10:52:20.721Z,1.30
2023-03-30T10:54:51.820Z,1.20
2023-03-30T10:57:21.583Z,1.50
2023-03-30T11:00:03.970Z,1.40
2023-03-30T11:02:41.402Z,1.00
2023-03-30T11:05:13.446Z,1.73
2023-03-30T11:07:45.018Z,1.10
2023-03-30T11:10:16.497Z,1.20
2023-03-30T11:12:47.709Z,0.83
2023-03-30T11:15:18.039Z,0.77
2023-03-30T11:17:51.311Z,1.00
2023-03-30T11:20:23.518Z,0.90
2023-03-30T11:22:56.757Z,0.90
2023-03-30T11:25:27.077Z,1.07
2023-03-30T11:27:57.820Z,1.03
2023-03-30T11:30:28.008Z,1.30
2023-03-30T11:32:58.991Z,1.60
2023-03-30T11:35:32.199Z,1.73
2023-03-30T11:38:04.349Z,2.00
2023-03-30T11:40:37.254Z,1.30
2023-03-30T11:43:05.577Z,2.10
2023-03-30T11:45:43.358Z,2.00
2023-03-30T11:48:19.918Z,1.50
2023-03-30T11:50:58.387Z,1.80
2023-03-30T11:53:34.339Z,2.30
2023-03-30T11:56:07.860Z,2.40
2023-03-30T11:58:37.869Z,2.17
2023-03-30T12:01:31.808Z,2.00
2023-03-30T12:04:03.361Z,2.20
2023-03-30T12:06:33.895Z,2.13
2023-03-30T12:09:16.623Z,2.97
2023-03-30T12:11:47.959Z,2.90
2023-03-30T12:14:29.558Z,2.20
2023-03-30T12:17:00.210Z,2.10
2023-03-30T12:19:31.346Z,2.30
2023-03-30T12:22:02.435Z,1.90
2023-03-30T12:24:35.689Z,2.27
2023-03-30T12:27:06.144Z,2.00
2023-03-30T12:30:01.586Z,2.33
2023-03-30T12:32:31.629Z,3.30
2023-03-30T12:35:00.098Z,2.30
2023-03-30T12:37:29.996Z,2.70
2023-03-30T12:40:06.924Z,2.50
2023-03-30T12:42:35.932Z,2.50
2023-03-30T12:45:13.609Z,2.60
2023-03-30T12:47:49.144Z,2.87
2023-03-30T12:50:24.847Z,2.00
2023-03-30T12:53:02.474Z,2.50
2023-03-30T12:55:41.497Z,2.40
2023-03-30T12:58:17.043Z,1.40
2023-03-30T13:01:16.508Z,2.33
2023-03-30T13:03:50.072Z,2.33
2023-03-30T13:06:23.911Z,1.87
2023-03-30T13:08:56.088Z,2.17
2023-03-30T13:11:26.056Z,2.03
2023-03-30T13:13:57.678Z,2.10
2023-03-30T13:16:44.751Z,2.53
2023-03-30T13:19:15.734Z,2.00
2023-03-30T13:21:50.824Z,1.70
2023-03-30T13:24:36.947Z,2.33
2023-03-30T13:27:27.110Z,2.07
2023-03-30T13:29:56.670Z,1.90
2023-03-30T13:32:29.305Z,1.93
2023-03-30T13:35:07.269Z,1.60
2023-03-30T13:37:49.414Z,2.63
2023-03-30T13:40:27.632Z,2.03
2023-03-30T13:43:10.664Z,2.20
2023-03-30T13:45:44.084Z,2.03
2023-03-30T13:48:17.699Z,2.10
2023-03-30T13:50:48.642Z,2.40
2023-03-30T13:53:17.767Z,2.40
2023-03-30T13:55:47.090Z,2.30
2023-03-30T13:58:18.104Z,2.30
2023-03-30T14:00:49.710Z,3.23
2023-03-30T14:03:28.248Z,2.70
2023-03-30T14:06:02.746Z,2.77
2023-03-30T14:08:34.209Z,2.83
2023-03-30T14:11:03.567Z,2.67
2023-03-30T14:13:33.474Z,2.87
2023-03-30T14:16:01.796Z,2.97
2023-03-30T14:18:30.227Z,2.27
2023-03-30T14:20:59.213Z,1.70
2023-03-30T14:23:32.559Z,2.27
2023-03-30T14:26:01.378Z,2.10
2023-03-30T14:28:30.316Z,2.30
2023-03-30T14:31:03.226Z,2.33
2023-03-30T14:33:32.770Z,1.70
2023-03-30T14:36:02.684Z,2.07
2023-03-30T14:38:34.688Z,1.50
2023-03-30T14:41:02.999Z,1.33
2023-03-30T14:43:32.959Z,1.20
2023-03-30T14:46:06.464Z,2.07
2023-03-30T14:48:37.464Z,1.40
2023-03-30T14:51:09.572Z,1.60
2023-03-30T14:53:38.141Z,1.70
2023-03-30T14:56:07.609Z,1.63
2023-03-30T14:58:36.102Z,1.23
2023-03-30T15:01:09.774Z,1.83
2023-03-30T15:03:39.764Z,1.20
2023-03-30T15:06:08.536Z,1.70
2023-03-30T15:08:39.482Z,1.80
2023-03-30T15:11:09.699Z,1.60
2023-03-30T15:13:39.163Z,1.90
2023-03-30T15:16:09.544Z,1.70
2023-03-30T15:18:38.254Z,1.37
2023-03-30T15:21:06.922Z,2.20
2023-03-30T15:23:37.232Z,2.30
2023-03-30T15:26:07.104Z,1.90
2023-03-30T15:28:37.079Z,1.87
2023-03-30T15:31:05.613Z,2.30
2023-03-30T15:33:36.808Z,2.03
2023-03-30T15:36:06.283Z,1.90
2023-03-30T15:38:36.193Z,2.00
2023-03-30T15:41:05.290Z,2.00
2023-03-30T15:43:34.641Z,3.50
2023-03-30T15:46:03.960Z,2.33
2023-03-30T15:48:33.389Z,1.70
2023-03-30T15:51:05.767Z,1.20
2023-03-30T15:53:38.539Z,1.40
2023-03-30T15:56:09.285Z,1.83
2023-03-30T15:58:37.494Z,2.00
2023-03-30T16:01:06.710Z,1.27
2023-03-30T16:03:40.599Z,1.50
2023-03-30T16:06:13.970Z,1.30
2023-03-30T16:08:44.454Z,1.17
2023-03-30T16:11:15.036Z,1.63
2023-03-30T16:13:44.102Z,1.47
2023-03-30T16:16:13.893Z,1.87
2023-03-30T16:18:42.930Z,1.67
2023-03-30T16:21:12.765Z,1.80
2023-03-30T16:23:41.087Z,1.87
2023-03-30T16:26:09.698Z,2.20
2023-03-30T16:28:38.293Z,1.47
2023-03-30T16:31:09.391Z,2.10
2023-03-30T16:33:37.666Z,2.37
2023-03-30T16:36:07.354Z,1.70
2023-03-30T16:38:36.962Z,1.60
2023-03-30T16:41:06.375Z,1.50
2023-03-30T16:43:34.774Z,2.00
2023-03-30T16:46:03.150Z,2.27
2023-03-30T16:48:31.571Z,2.00
2023-03-30T16:50:59.957Z,2.03
2023-03-30T16:53:28.171Z,2.40
2023-03-30T16:55:57.769Z,2.27
2023-03-30T16:58:25.981Z,1.60
2023-03-30T17:01:01.011Z,2.00
2023-03-30T17:03:29.413Z,2.10
2023-03-30T17:05:58.046Z,1.80
2023-03-30T17:08:27.453Z,2.60
2023-03-30T17:10:56.601Z,2.37
2023-03-30T17:13:26.330Z,2.13
2023-03-30T17:15:54.743Z,2.50
2023-03-30T17:18:23.983Z,2.33
2023-03-30T17:20:52.927Z,2.80
2023-03-30T17:23:21.483Z,2.10
2023-03-30T17:25:50.052Z,2.00
2023-03-30T17:28:21.215Z,2.47
2023-03-30T17:30:51.357Z,2.03
2023-03-30T17:33:21.025Z,2.63
2023-03-30T17:35:51.301Z,1.73
2023-03-30T17:38:19.622Z,2.00
2023-03-30T17:40:48.702Z,1.73
2023-03-30T17:43:17.340Z,2.40
2023-03-30T17:45:46.901Z,1.70
2023-03-30T17:48:17.446Z,2.13
2023-03-30T17:50:46.705Z,1.83
2023-03-30T17:53:16.745Z,1.47
2023-03-30T17:55:45.984Z,1.60
2023-03-30T17:58:16.433Z,2.03
2023-03-30T18:00:45.807Z,2.43
2023-03-30T18:03:14.588Z,1.87
2023-03-30T18:05:44.850Z,1.97
2023-03-30T18:08:17.247Z,1.57
2023-03-30T18:10:47.861Z,1.23
2023-03-30T18:13:16.550Z,1.73
2023-03-30T18:15:45.910Z,1.70
2023-03-30T18:18:22.315Z,1.40
2023-03-30T18:20:52.204Z,1.90
2023-03-30T18:23:20.670Z,1.90
2023-03-30T18:25:49.033Z,2.27
2023-03-30T18:28:18.157Z,1.80
2023-03-30T18:30:46.650Z,1.40
2023-03-30T18:33:16.068Z,1.83
2023-03-30T18:35:44.966Z,2.37
2023-03-30T18:38:15.360Z,1.50
2023-03-30T18:40:45.205Z,1.50
2023-03-30T18:43:13.868Z,1.73
2023-03-30T18:45:43.025Z,2.27
2023-03-30T18:48:13.551Z,1.53
2023-03-30T18:50:42.449Z,1.63
2023-03-30T18:53:11.639Z,1.90
2023-03-30T18:55:42.151Z,1.30
2023-03-30T18:58:14.134Z,1.30
2023-03-30T19:00:42.466Z,1.20
2023-03-30T19:03:10.943Z,1.50
2023-03-30T19:05:39.681Z,1.90
2023-03-30T19:08:08.268Z,1.30
2023-03-30T19:10:38.580Z,2.40
2023-03-30T19:13:12.876Z,2.27
2023-03-30T19:15:41.402Z,2.10
2023-03-30T19:18:10.896Z,2.40
2023-03-30T19:20:41.346Z,2.47
2023-03-30T19:23:10.736Z,2.30
2023-03-30T19:25:39.094Z,2.63
2023-03-30T19:28:07.959Z,2.37
2023-03-30T19:30:39.634Z,2.53
2023-03-30T19:33:09.718Z,2.33
2023-03-30T19:35:38.004Z,2.80
2023-03-30T19:38:06.269Z,2.40
2023-03-30T19:40:34.535Z,2.90
2023-03-30T19:43:02.822Z,2.47
2023-03-30T19:45:32.247Z,2.93
2023-03-30T19:48:02.013Z,2.80
2023-03-30T19:50:30.688Z,2.70
2023-03-30T19:52:59.552Z,2.80
2023-03-30T19:55:29.929Z,2.70
2023-03-30T19:57:59.319Z,2.50
2023-03-30T20:00:27.634Z,2.43
2023-03-30T20:02:56.984Z,2.53
2023-03-30T20:05:26.848Z,3.30
2023-03-30T20:07:55.113Z,2.50
2023-03-30T20:10:24.607Z,3.00
2023-03-30T20:12:53.497Z,2.57
2023-03-30T20:15:23.697Z,2.83
2023-03-30T20:17:56.406Z,2.20
2023-03-30T20:20:26.090Z,2.40
2023-03-30T20:22:56.790Z,2.57
2023-03-30T20:25:27.435Z,2.77
2023-03-30T20:27:55.624Z,2.27
2023-03-30T20:30:24.017Z,2.03
2023-03-30T20:33:06.757Z,2.00
2023-03-30T20:35:36.398Z,2.27
2023-03-30T20:38:06.143Z,1.90
2023-03-30T20:40:34.425Z,2.50
2023-03-30T20:43:03.353Z,1.83
2023-03-30T20:45:32.358Z,1.63
2023-03-30T20:48:21.343Z,1.95
2023-03-30T20:50:49.565Z,2.13
2023-03-30T20:53:19.307Z,1.70
2023-03-30T20:55:47.751Z,2.33
2023-03-30T20:58:16.145Z,1.93
2023-03-30T21:00:44.440Z,1.70
2023-03-30T21:03:14.038Z,1.70
2023-03-30T21:05:42.431Z,2.50
2023-03-30T21:08:10.672Z,3.03
2023-03-30T21:10:43.165Z,1.67
2023-03-30T21:13:11.358Z,2.30
2023-03-30T21:15:39.658Z,2.30
2023-03-30T21:18:07.990Z,1.60
2023-03-30T21:20:36.462Z,1.40
2023-03-30T21:23:04.642Z,1.43
2023-03-30T21:25:32.872Z,2.10
2023-03-30T21:28:02.457Z,1.87
2023-03-30T21:30:33.208Z,2.47
2023-03-30T21:33:01.718Z,1.77
2023-03-30T21:35:29.992Z,2.00
2023-03-30T21:37:58.172Z,1.80
2023-03-30T21:40:26.634Z,2.83
2023-03-30T21:42:54.911Z,2.03
2023-03-30T21:45:24.641Z,1.90
2023-03-30T21:47:52.959Z,1.77
2023-03-30T21:50:23.785Z,1.60
2023-03-30T21:52:58.182Z,1.57
2023-03-30T21:55:26.453Z,1.83
2023-03-30T21:57:54.702Z,1.57
2023-03-30T22:00:22.952Z,1.77
2023-03-30T22:02:52.623Z,1.47
2023-03-30T22:05:21.261Z,2.00
2023-03-30T22:07:49.641Z,1.70
2023-03-30T22:10:17.979Z,2.23
2023-03-30T22:12:46.439Z,1.90
2023-03-30T22:15:14.634Z,1.73
2023-03-30T22:17:45.924Z,1.93
2023-03-30T22:20:16.704Z,2.90
2023-03-30T22:22:44.900Z,2.20
2023-03-30T22:25:13.170Z,1.73
2023-03-30T22:27:42.007Z,2.00
2023-03-30T22:30:10.790Z,1.50
2023-03-30T22:32:39.418Z,1.40
2023-03-30T22:35:08.271Z,1.90
2023-03-30T22:37:37.997Z,1.80
2023-03-30T22:40:07.075Z,1.30
2023-03-30T22:42:35.979Z,1.57
2023-03-30T22:45:04.579Z,1.20
2023-03-30T22:47:32.959Z,1.37
2023-03-30T22:50:01.200Z,1.83
2023-03-30T22:52:30.151Z,1.70
2023-03-30T22:54:59.671Z,1.87
2023-03-30T22:57:28.217Z,1.87
2023-03-30T22:59:56.429Z,2.90
2023-03-30T23:02:24.646Z,1.57
2023-03-30T23:04:52.908Z,1.90
2023-03-30T23:07:21.775Z,1.90
2023-03-30T23:09:50.580Z,2.67
2023-03-30T23:12:21.408Z,2.00
2023-03-30T23:14:49.591Z,1.97
2023-03-30T23:17:18.261Z,2.00
2023-03-30T23:19:46.507Z,2.50
2023-03-30T23:22:17.925Z,1.90
2023-03-30T23:24:46.290Z,1.40
2023-03-30T23:27:14.570Z,2.07
2023-03-30T23:29:44.154Z,1.90
2023-03-30T23:32:12.438Z,1.73
2023-03-30T23:34:40.802Z,2.50
2023-03-30T23:37:09.023Z,2.20
2023-03-30T23:39:37.491Z,1.83
2023-03-30T23:42:06.524Z,1.70
2023-03-30T23:44:34.808Z,2.00
2023-03-30T23:47:04.520Z,2.10
2023-03-30T23:49:32.802Z,2.00
2023-03-30T23:52:01.093Z,2.07
2023-03-30T23:54:31.610Z,2.30
2023-03-30T23:57:04.546Z,2.60
2023-03-30T23:59:32.859Z,2.23
